createdAt,value
2023-05-22T00:00:02.083Z,19.35
2023-05-22T00:01:02.141Z,19.35
2023-05-22T00:02:02.105Z,19.35
2023-05-22T00:03:02.131Z,19.33
2023-05-22T00:04:02.042Z,19.32
2023-05-22T00:05:02.046Z,19.31
2023-05-22T00:06:02.043Z,19.29
2023-05-22T00:07:02.018Z,19.29
2023-05-22T00:08:02.033Z,19.29
2023-05-22T00:09:02.035Z,19.25
2023-05-22T00:10:01.979Z,19.24
2023-05-22T00:11:01.989Z,19.24
2023-05-22T00:12:01.959Z,19.23
2023-05-22T00:13:01.952Z,19.21
2023-05-22T00:14:01.930Z,19.21
2023-05-22T00:15:01.920Z,19.23
2023-05-22T00:16:01.933Z,19.25
2023-05-22T00:17:01.976Z,19.28
2023-05-22T00:18:01.935Z,19.29
2023-05-22T00:19:01.948Z,19.28
2023-05-22T00:20:01.916Z,19.29
2023-05-22T00:21:01.880Z,19.29
2023-05-22T00:22:01.843Z,19.29
2023-05-22T00:23:01.830Z,19.29
2023-05-22T00:24:01.871Z,19.25
2023-05-22T00:25:01.816Z,19.28
2023-05-22T00:26:01.867Z,19.28
2023-05-22T00:27:01.815Z,19.25
2023-05-22T00:28:01.785Z,19.28
2023-05-22T00:29:01.774Z,19.23
2023-05-22T00:30:01.860Z,19.21
2023-05-22T00:31:01.771Z,19.18
2023-05-22T00:32:01.741Z,19.15
2023-05-22T00:33:01.786Z,19.15
2023-05-22T00:34:01.790Z,19.15
2023-05-22T00:35:01.703Z,19.14
2023-05-22T00:36:01.693Z,19.14
2023-05-22T00:37:01.696Z,19.14
2023-05-22T00:38:01.672Z,19.14
2023-05-22T00:39:01.660Z,19.11
2023-05-22T00:40:01.651Z,19.10
2023-05-22T00:41:02.278Z,19.11
2023-05-22T00:42:01.666Z,19.11
2023-05-22T00:43:01.622Z,19.11
2023-05-22T00:44:01.606Z,19.11
2023-05-22T00:45:01.599Z,19.10
2023-05-22T00:46:01.581Z,19.08
2023-05-22T00:47:01.759Z,19.08
2023-05-22T00:48:01.591Z,19.08
2023-05-22T00:49:01.562Z,19.08
2023-05-22T00:50:01.535Z,19.08
2023-05-22T00:51:01.529Z,19.06
2023-05-22T00:52:01.547Z,19.02
2023-05-22T00:53:01.514Z,19.02
2023-05-22T00:54:01.502Z,18.99
2023-05-22T00:55:01.477Z,18.98
2023-05-22T00:56:01.471Z,18.98
2023-05-22T00:57:01.484Z,18.95
2023-05-22T00:58:01.452Z,18.92
2023-05-22T00:59:01.437Z,18.90
2023-05-22T01:00:01.423Z,18.86
2023-05-22T01:01:01.418Z,18.83
2023-05-22T01:02:01.454Z,18.79
2023-05-22T01:03:01.576Z,18.77
2023-05-22T01:04:01.533Z,18.74
2023-05-22T01:05:01.411Z,18.72
2023-05-22T01:06:01.356Z,18.67
2023-05-22T01:07:01.386Z,18.64
2023-05-22T01:08:01.335Z,18.61
2023-05-22T01:09:01.341Z,18.58
2023-05-22T01:10:01.328Z,18.57
2023-05-22T01:11:01.336Z,18.55
2023-05-22T01:12:01.334Z,18.55
2023-05-22T01:13:01.294Z,18.52
2023-05-22T01:14:01.309Z,18.50
2023-05-22T01:15:01.267Z,18.49
2023-05-22T01:16:01.281Z,18.49
2023-05-22T01:17:01.271Z,18.47
2023-05-22T01:18:01.248Z,18.46
2023-05-22T01:19:01.251Z,18.46
2023-05-22T01:20:01.372Z,18.42
2023-05-22T01:21:01.193Z,18.40
2023-05-22T01:22:01.216Z,18.42
2023-05-22T01:23:01.174Z,18.40
2023-05-22T01:24:01.160Z,18.42
2023-05-22T01:25:01.188Z,18.42
2023-05-22T01:26:01.147Z,18.40
2023-05-22T01:27:01.183Z,18.39
2023-05-22T01:28:01.148Z,18.39
2023-05-22T01:29:01.123Z,18.36
2023-05-22T01:30:01.093Z,18.34
2023-05-22T01:31:01.083Z,18.33
2023-05-22T01:32:01.088Z,18.31
2023-05-22T01:33:01.191Z,18.31
2023-05-22T01:34:01.107Z,18.27
2023-05-22T01:35:01.061Z,18.25
2023-05-22T01:36:01.043Z,18.22
2023-05-22T01:37:01.036Z,18.21
2023-05-22T01:38:01.022Z,18.18
2023-05-22T01:39:01.002Z,18.18
2023-05-22T01:40:00.996Z,18.15
2023-05-22T01:41:00.981Z,18.13
2023-05-22T01:42:01.004Z,18.12
2023-05-22T01:43:00.950Z,18.09
2023-05-22T01:44:00.967Z,18.07
2023-05-22T01:45:00.945Z,18.06
2023-05-22T01:46:01.005Z,18.06
2023-05-22T01:47:00.926Z,18.03
2023-05-22T01:48:00.962Z,18.03
2023-05-22T01:49:00.896Z,18.02
2023-05-22T01:50:00.882Z,18.02
2023-05-22T01:51:00.874Z,18.00
2023-05-22T01:52:00.888Z,18.00
2023-05-22T01:53:00.843Z,18.00
2023-05-22T01:54:00.830Z,18.00
2023-05-22T01:55:00.827Z,18.02
2023-05-22T01:56:00.819Z,18.02
2023-05-22T01:57:00.842Z,18.00
2023-05-22T01:58:00.785Z,18.00
2023-05-22T01:59:00.768Z,17.99
2023-05-22T02:00:00.770Z,17.97
2023-05-22T02:01:01.099Z,18.00
2023-05-22T02:02:00.817Z,18.03
2023-05-22T02:03:00.830Z,18.02
2023-05-22T02:04:00.722Z,18.00
2023-05-22T02:05:00.731Z,18.02
2023-05-22T02:06:00.715Z,17.99
2023-05-22T02:07:00.708Z,17.97
2023-05-22T02:08:00.659Z,17.97
2023-05-22T02:09:00.671Z,17.94
2023-05-22T02:10:00.648Z,17.92
2023-05-22T02:11:00.646Z,17.91
2023-05-22T02:12:00.654Z,17.91
2023-05-22T02:13:00.612Z,17.89
2023-05-22T02:14:00.611Z,17.88
2023-05-22T02:15:00.587Z,17.87
2023-05-22T02:16:00.589Z,17.85
2023-05-22T02:17:00.586Z,17.84
2023-05-22T02:18:00.604Z,17.84
2023-05-22T02:19:00.595Z,17.89
2023-05-22T02:20:00.559Z,17.92
2023-05-22T02:21:00.525Z,17.97
2023-05-22T02:22:00.543Z,17.97
2023-05-22T02:23:00.505Z,17.97
2023-05-22T02:24:00.509Z,17.99
2023-05-22T02:25:00.483Z,17.97
2023-05-22T02:26:00.468Z,17.95
2023-05-22T02:27:00.489Z,17.95
2023-05-22T02:28:00.451Z,17.91
2023-05-22T02:29:00.496Z,17.89
2023-05-22T02:30:00.431Z,17.87
2023-05-22T02:31:00.479Z,17.85
2023-05-22T02:32:00.423Z,17.84
2023-05-22T02:33:00.505Z,17.82
2023-05-22T02:34:00.422Z,17.81
2023-05-22T02:35:00.365Z,17.79
2023-05-22T02:36:00.367Z,17.79
2023-05-22T02:37:00.361Z,17.79
2023-05-22T02:38:00.324Z,17.79
2023-05-22T02:39:00.337Z,17.81
2023-05-22T02:40:00.324Z,17.84
2023-05-22T02:41:00.294Z,17.84
2023-05-22T02:42:00.311Z,17.84
2023-05-22T02:43:00.284Z,17.88
2023-05-22T02:44:00.256Z,17.89
2023-05-22T02:45:00.256Z,17.89
2023-05-22T02:46:00.257Z,17.91
2023-05-22T02:47:00.345Z,17.92
2023-05-22T02:48:00.328Z,17.91
2023-05-22T02:49:00.233Z,17.92
2023-05-22T02:50:00.230Z,17.88
2023-05-22T02:51:00.192Z,17.88
2023-05-22T02:52:00.207Z,17.88
2023-05-22T02:53:00.162Z,17.87
2023-05-22T02:54:00.149Z,17.88
2023-05-22T02:55:00.172Z,17.87
2023-05-22T02:56:00.151Z,17.84
2023-05-22T02:57:00.131Z,17.84
2023-05-22T02:58:00.100Z,17.84
2023-05-22T02:59:00.157Z,17.84
2023-05-22T03:00:00.078Z,17.88
2023-05-22T03:01:00.064Z,17.85
2023-05-22T03:02:00.294Z,17.84
2023-05-22T03:03:00.154Z,17.82
2023-05-22T03:04:00.137Z,17.84
2023-05-22T03:05:00.059Z,17.85
2023-05-22T03:06:00.031Z,17.85
2023-05-22T03:07:00.029Z,17.88
2023-05-22T03:07:59.978Z,17.89
2023-05-22T03:09:01.661Z,17.92
2023-05-22T03:09:59.962Z,17.92
2023-05-22T03:11:06.505Z,17.89
2023-05-22T03:11:59.952Z,17.87
2023-05-22T03:12:59.912Z,17.85
2023-05-22T03:13:59.912Z,17.84
2023-05-22T03:14:59.898Z,17.82
2023-05-22T03:16:00.001Z,17.82
2023-05-22T03:16:59.897Z,17.81
2023-05-22T03:17:59.884Z,17.82
2023-05-22T03:18:59.884Z,17.81
2023-05-22T03:19:59.885Z,17.81
2023-05-22T03:20:59.826Z,17.81
2023-05-22T03:21:59.854Z,17.82
2023-05-22T03:23:00.688Z,17.82
2023-05-22T03:23:59.803Z,17.84
2023-05-22T03:24:59.787Z,17.87
2023-05-22T03:25:59.804Z,17.87
2023-05-22T03:26:59.793Z,17.88
2023-05-22T03:27:59.766Z,17.88
2023-05-22T03:28:59.823Z,17.89
2023-05-22T03:29:59.738Z,17.89
2023-05-22T03:30:59.781Z,17.88
2023-05-22T03:31:59.726Z,17.87
2023-05-22T03:32:59.778Z,17.88
2023-05-22T03:33:59.698Z,17.92
2023-05-22T03:34:59.666Z,17.97
2023-05-22T03:35:59.706Z,17.99
2023-05-22T03:36:59.665Z,17.99
2023-05-22T03:37:59.683Z,17.99
2023-05-22T03:38:59.625Z,17.99
2023-05-22T03:39:59.632Z,17.99
2023-05-22T03:40:59.604Z,18.00
2023-05-22T03:41:59.612Z,18.00
2023-05-22T03:42:59.597Z,18.03
2023-05-22T03:43:59.570Z,18.02
2023-05-22T03:44:59.551Z,18.00
2023-05-22T03:45:59.596Z,18.02
2023-05-22T03:46:59.555Z,18.03
2023-05-22T03:47:59.563Z,18.00
2023-05-22T03:48:59.525Z,17.97
2023-05-22T03:49:59.522Z,17.97
2023-05-22T03:50:59.503Z,17.95
2023-05-22T03:51:59.494Z,17.92
2023-05-22T03:52:59.491Z,17.89
2023-05-22T03:53:59.471Z,17.88
2023-05-22T03:54:59.444Z,17.89
2023-05-22T03:55:59.473Z,17.92
2023-05-22T03:56:59.436Z,17.94
2023-05-22T03:57:59.429Z,18.00
2023-05-22T03:58:59.413Z,18.03
2023-05-22T03:59:59.388Z,18.06
2023-05-22T04:00:59.378Z,18.13
2023-05-22T04:01:59.457Z,18.17
2023-05-22T04:02:59.458Z,18.21
2023-05-22T04:03:59.350Z,18.22
2023-05-22T04:04:59.361Z,18.22
2023-05-22T04:05:59.326Z,18.22
2023-05-22T04:06:59.332Z,18.22
2023-05-22T04:07:59.328Z,18.24
2023-05-22T04:08:59.299Z,18.24
2023-05-22T04:09:59.279Z,18.25
2023-05-22T04:10:59.811Z,18.25
2023-05-22T04:11:59.257Z,18.33
2023-05-22T04:12:59.260Z,18.36
2023-05-22T04:13:59.229Z,18.37
2023-05-22T04:14:59.277Z,18.40
2023-05-22T04:15:59.209Z,18.40
2023-05-22T04:16:59.204Z,18.43
2023-05-22T04:17:59.235Z,18.46
2023-05-22T04:18:59.212Z,18.47
2023-05-22T04:19:59.165Z,18.52
2023-05-22T04:20:59.157Z,18.52
2023-05-22T04:21:59.227Z,18.52
2023-05-22T04:22:59.157Z,18.52
2023-05-22T04:23:59.113Z,18.57
2023-05-22T04:24:59.116Z,18.62
2023-05-22T04:25:59.131Z,18.62
2023-05-22T04:26:59.084Z,18.62
2023-05-22T04:27:59.117Z,18.65
2023-05-22T04:28:59.084Z,18.67
2023-05-22T04:29:59.069Z,18.67
2023-05-22T04:30:59.064Z,18.68
2023-05-22T04:31:59.027Z,18.68
2023-05-22T04:32:59.071Z,18.64
2023-05-22T04:33:59.048Z,18.64
2023-05-22T04:34:58.998Z,18.64
2023-05-22T04:35:58.991Z,18.62
2023-05-22T04:36:58.971Z,18.62
2023-05-22T04:37:59.006Z,18.67
2023-05-22T04:38:58.958Z,18.67
2023-05-22T04:39:58.947Z,18.68
2023-05-22T04:40:58.942Z,18.67
2023-05-22T04:41:58.942Z,18.67
2023-05-22T04:42:58.940Z,18.65
2023-05-22T04:43:58.907Z,18.67
2023-05-22T04:44:58.888Z,18.67
2023-05-22T04:45:58.896Z,18.65
2023-05-22T04:46:58.917Z,18.67
2023-05-22T04:47:58.902Z,18.67
2023-05-22T04:48:58.852Z,18.64
2023-05-22T04:49:58.837Z,18.65
2023-05-22T04:50:58.822Z,18.68
2023-05-22T04:51:58.813Z,18.70
2023-05-22T04:52:58.835Z,18.70
2023-05-22T04:53:58.800Z,18.72
2023-05-22T04:55:00.456Z,18.76
2023-05-22T04:55:58.793Z,18.72
2023-05-22T04:56:58.770Z,18.76
2023-05-22T04:57:58.765Z,18.82
2023-05-22T04:58:58.726Z,18.86
2023-05-22T04:59:58.720Z,18.90
2023-05-22T05:00:58.849Z,18.91
2023-05-22T05:01:58.700Z,18.94
2023-05-22T05:02:58.808Z,18.98
2023-05-22T05:03:58.707Z,19.06
2023-05-22T05:04:58.669Z,19.11
2023-05-22T05:05:58.652Z,19.13
2023-05-22T05:06:58.661Z,19.14
2023-05-22T05:07:58.656Z,19.15
2023-05-22T05:08:58.631Z,19.15
2023-05-22T05:09:58.612Z,19.20
2023-05-22T05:10:58.593Z,19.24
2023-05-22T05:11:58.595Z,19.28
2023-05-22T05:12:58.608Z,19.32
2023-05-22T05:13:58.578Z,19.33
2023-05-22T05:14:58.549Z,19.35
2023-05-22T05:15:58.552Z,19.38
2023-05-22T05:16:58.581Z,19.39
2023-05-22T05:17:58.610Z,19.40
2023-05-22T05:18:58.564Z,19.46
2023-05-22T05:19:58.493Z,19.43
2023-05-22T05:20:58.496Z,19.47
2023-05-22T05:21:58.484Z,19.47
2023-05-22T05:22:58.481Z,19.48
2023-05-22T05:23:58.467Z,19.50
2023-05-22T05:24:58.456Z,19.47
2023-05-22T05:25:58.447Z,19.43
2023-05-22T05:26:58.431Z,19.46
2023-05-22T05:27:58.426Z,19.47
2023-05-22T05:28:58.398Z,19.42
2023-05-22T05:29:58.400Z,19.42
2023-05-22T05:30:58.390Z,19.39
2023-05-22T05:31:58.409Z,19.40
2023-05-22T05:32:58.535Z,19.40
2023-05-22T05:33:58.377Z,19.39
2023-05-22T05:34:58.341Z,19.36
2023-05-22T05:35:58.350Z,19.33
2023-05-22T05:36:58.338Z,19.33
2023-05-22T05:37:58.317Z,19.31
2023-05-22T05:38:58.290Z,19.25
2023-05-22T05:39:58.301Z,19.24
2023-05-22T05:40:58.277Z,19.24
2023-05-22T05:41:58.253Z,19.24
2023-05-22T05:42:58.274Z,19.24
2023-05-22T05:43:58.238Z,19.28
2023-05-22T05:44:58.239Z,19.24
2023-05-22T05:45:58.280Z,19.23
2023-05-22T05:46:58.206Z,19.23
2023-05-22T05:47:58.265Z,19.23
2023-05-22T05:48:58.192Z,19.20
2023-05-22T05:49:58.169Z,19.20
2023-05-22T05:50:58.175Z,19.23
2023-05-22T05:51:58.149Z,19.24
2023-05-22T05:52:58.152Z,19.21
2023-05-22T05:53:58.144Z,19.25
2023-05-22T05:54:58.126Z,19.29
2023-05-22T05:55:58.112Z,19.33
2023-05-22T05:56:58.090Z,19.35
2023-05-22T05:57:58.098Z,19.35
2023-05-22T05:58:58.072Z,19.33
2023-05-22T05:59:58.076Z,19.36
2023-05-22T06:00:58.052Z,19.42
2023-05-22T06:01:58.062Z,19.46
2023-05-22T06:02:58.183Z,19.48
2023-05-22T06:03:58.257Z,19.48
2023-05-22T06:04:58.012Z,19.50
2023-05-22T06:05:58.134Z,19.51
2023-05-22T06:06:57.981Z,19.57
2023-05-22T06:07:57.998Z,19.63
2023-05-22T06:08:57.962Z,19.69
2023-05-22T06:09:57.962Z,19.76
2023-05-22T06:10:57.957Z,19.79
2023-05-22T06:11:57.961Z,19.84
2023-05-22T06:12:57.949Z,19.90
2023-05-22T06:13:57.912Z,19.97
2023-05-22T06:14:57.893Z,20.02
2023-05-22T06:16:01.193Z,20.03
2023-05-22T06:16:58.049Z,20.06
2023-05-22T06:17:57.920Z,20.10
2023-05-22T06:18:57.869Z,20.10
2023-05-22T06:19:57.837Z,20.13
2023-05-22T06:20:57.832Z,20.16
2023-05-22T06:21:57.812Z,20.24
2023-05-22T06:22:57.824Z,20.30
2023-05-22T06:23:57.790Z,20.34
2023-05-22T06:24:57.782Z,20.38
2023-05-22T06:25:57.783Z,20.43
2023-05-22T06:26:57.768Z,20.50
2023-05-22T06:27:57.776Z,20.56
2023-05-22T06:28:57.752Z,20.58
2023-05-22T06:29:57.740Z,20.58
2023-05-22T06:30:57.721Z,20.61
2023-05-22T06:31:57.746Z,20.65
2023-05-22T06:32:57.887Z,20.69
2023-05-22T06:33:57.769Z,20.74
2023-05-22T06:34:57.694Z,20.76
2023-05-22T06:35:57.673Z,20.84
2023-05-22T06:36:57.660Z,20.90
2023-05-22T06:37:57.658Z,20.98
2023-05-22T06:38:57.632Z,21.04
2023-05-22T06:39:57.625Z,21.13
2023-05-22T06:40:57.605Z,21.16
2023-05-22T06:41:57.613Z,21.23
2023-05-22T06:42:57.609Z,21.34
2023-05-22T06:43:57.582Z,21.42
2023-05-22T06:44:57.561Z,21.50
2023-05-22T06:45:57.653Z,21.59
2023-05-22T06:46:57.548Z,21.67
2023-05-22T06:47:57.566Z,21.76
2023-05-22T06:48:57.541Z,21.81
2023-05-22T06:49:57.539Z,21.91
2023-05-22T06:50:57.537Z,21.97
2023-05-22T06:51:57.501Z,22.06
2023-05-22T06:52:57.507Z,22.10
2023-05-22T06:53:57.470Z,22.20
2023-05-22T06:54:57.463Z,22.28
2023-05-22T06:55:57.481Z,22.37
2023-05-22T06:56:57.432Z,22.39
2023-05-22T06:57:57.471Z,22.43
2023-05-22T06:58:57.414Z,22.38
2023-05-22T06:59:57.401Z,22.46
2023-05-22T07:00:57.463Z,22.52
2023-05-22T07:01:57.394Z,22.59
2023-05-22T07:02:57.486Z,22.65
2023-05-22T07:03:57.371Z,22.64
2023-05-22T07:04:57.353Z,22.64
2023-05-22T07:05:57.468Z,22.59
2023-05-22T07:06:57.325Z,22.60
2023-05-22T07:07:57.326Z,22.65
2023-05-22T07:08:57.297Z,22.65
2023-05-22T07:09:57.359Z,22.72
2023-05-22T07:10:57.291Z,22.71
2023-05-22T07:11:57.281Z,22.71
2023-05-22T07:12:57.275Z,22.71
2023-05-22T07:13:57.287Z,22.72
2023-05-22T07:14:57.237Z,22.74
2023-05-22T07:15:57.222Z,22.67
2023-05-22T07:16:57.298Z,22.59
2023-05-22T07:17:57.243Z,22.53
2023-05-22T07:18:57.220Z,22.53
2023-05-22T07:19:57.181Z,22.56
2023-05-22T07:20:57.165Z,22.53
2023-05-22T07:21:57.164Z,22.56
2023-05-22T07:22:57.325Z,22.60
2023-05-22T07:23:57.136Z,22.67
2023-05-22T07:24:57.131Z,22.68
2023-05-22T07:25:57.127Z,22.68
2023-05-22T07:26:57.106Z,22.72
2023-05-22T07:27:57.108Z,22.75
2023-05-22T07:28:57.077Z,22.78
2023-05-22T07:29:57.067Z,22.80
2023-05-22T07:30:57.055Z,22.86
2023-05-22T07:31:57.153Z,22.89
2023-05-22T07:32:57.075Z,22.94
2023-05-22T07:33:57.036Z,22.94
2023-05-22T07:34:57.012Z,22.93
2023-05-22T07:35:57.020Z,23.01
2023-05-22T07:36:56.998Z,23.07
2023-05-22T07:37:57.007Z,23.05
2023-05-22T07:38:56.985Z,23.01
2023-05-22T07:39:56.975Z,22.97
2023-05-22T07:40:56.968Z,22.96
2023-05-22T07:41:57.943Z,23.01
2023-05-22T07:42:56.968Z,23.07
2023-05-22T07:43:56.917Z,23.07
2023-05-22T07:44:56.914Z,23.09
2023-05-22T07:45:56.976Z,23.19
2023-05-22T07:46:56.897Z,23.22
2023-05-22T07:47:56.942Z,23.07
2023-05-22T07:48:56.855Z,23.07
2023-05-22T07:49:56.856Z,23.14
2023-05-22T07:50:56.861Z,23.15
2023-05-22T07:51:56.830Z,23.19
2023-05-22T07:52:56.836Z,23.22
2023-05-22T07:53:56.797Z,23.27
2023-05-22T07:54:56.810Z,23.34
2023-05-22T07:55:56.780Z,23.29
2023-05-22T07:56:56.781Z,23.29
2023-05-22T07:57:56.772Z,23.31
2023-05-22T07:58:56.754Z,23.38
2023-05-22T07:59:56.726Z,23.39
2023-05-22T08:00:56.746Z,23.43
2023-05-22T08:01:58.179Z,23.47
2023-05-22T08:02:56.822Z,23.52
2023-05-22T08:03:57.015Z,23.50
2023-05-22T08:04:56.753Z,23.46
2023-05-22T08:05:56.670Z,23.47
2023-05-22T08:06:56.658Z,23.38
2023-05-22T08:07:56.676Z,23.29
2023-05-22T08:08:56.639Z,23.27
2023-05-22T08:09:56.646Z,23.31
2023-05-22T08:11:04.248Z,23.39
2023-05-22T08:11:56.646Z,23.47
2023-05-22T08:12:56.622Z,23.50
2023-05-22T08:13:56.576Z,23.52
2023-05-22T08:14:56.573Z,23.53
2023-05-22T08:16:00.671Z,23.57
2023-05-22T08:16:56.603Z,23.57
2023-05-22T08:17:56.577Z,23.64
2023-05-22T08:18:56.596Z,23.68
2023-05-22T08:19:56.587Z,23.72
2023-05-22T08:20:56.503Z,23.77
2023-05-22T08:21:56.499Z,23.80
2023-05-22T08:22:56.505Z,23.82
2023-05-22T08:23:56.494Z,23.75
2023-05-22T08:24:56.471Z,23.71
2023-05-22T08:25:56.465Z,23.76
2023-05-22T08:26:56.441Z,23.77
2023-05-22T08:27:56.450Z,23.79
2023-05-22T08:28:56.415Z,23.82
2023-05-22T08:29:56.419Z,23.87
2023-05-22T08:30:56.395Z,24.01
2023-05-22T08:31:56.411Z,24.10
2023-05-22T08:32:56.446Z,24.19
2023-05-22T08:33:56.385Z,24.14
2023-05-22T08:34:56.353Z,24.10
2023-05-22T08:35:56.338Z,24.12
2023-05-22T08:36:56.334Z,24.16
2023-05-22T08:37:56.329Z,24.17
2023-05-22T08:38:56.326Z,24.22
2023-05-22T08:39:56.311Z,24.23
2023-05-22T08:40:56.279Z,24.34
2023-05-22T08:41:56.287Z,24.39
2023-05-22T08:42:56.269Z,24.42
2023-05-22T08:43:56.264Z,24.49
2023-05-22T08:44:56.245Z,24.57
2023-05-22T08:45:56.241Z,24.61
2023-05-22T08:46:56.342Z,24.67
2023-05-22T08:47:56.268Z,24.73
2023-05-22T08:48:56.209Z,24.82
2023-05-22T08:49:56.186Z,24.91
2023-05-22T08:50:56.176Z,24.95
2023-05-22T08:51:56.175Z,24.97
2023-05-22T08:52:56.148Z,25.05
2023-05-22T08:53:56.165Z,25.07
2023-05-22T08:54:56.140Z,25.09
2023-05-22T08:55:56.127Z,25.09
2023-05-22T08:56:57.478Z,25.07
2023-05-22T08:57:56.110Z,25.05
2023-05-22T08:58:56.114Z,25.07
2023-05-22T08:59:56.077Z,25.07
2023-05-22T09:00:56.097Z,25.07
2023-05-22T09:01:56.056Z,25.16
2023-05-22T09:02:56.129Z,25.17
2023-05-22T09:03:56.086Z,25.22
2023-05-22T09:04:56.042Z,25.28
2023-05-22T09:05:56.014Z,25.39
2023-05-22T09:06:56.005Z,25.50
2023-05-22T09:07:58.418Z,25.62
2023-05-22T09:08:56.008Z,25.62
2023-05-22T09:09:55.967Z,25.64
2023-05-22T09:10:55.966Z,25.68
2023-05-22T09:11:55.968Z,25.77
2023-05-22T09:12:55.941Z,25.84
2023-05-22T09:13:55.944Z,25.97
2023-05-22T09:14:55.934Z,25.99
2023-05-22T09:15:55.921Z,26.02
2023-05-22T09:16:55.928Z,25.97
2023-05-22T09:17:55.938Z,26.02
2023-05-22T09:18:55.897Z,26.08
2023-05-22T09:19:55.866Z,26.18
2023-05-22T09:20:55.858Z,26.22
2023-05-22T09:21:55.838Z,26.22
2023-05-22T09:22:55.842Z,26.25
2023-05-22T09:23:55.838Z,26.20
2023-05-22T09:24:55.808Z,26.20
2023-05-22T09:25:55.805Z,26.27
2023-05-22T09:26:55.811Z,26.31
2023-05-22T09:27:55.775Z,26.42
2023-05-22T09:28:55.788Z,26.50
2023-05-22T09:29:55.756Z,26.61
2023-05-22T09:30:55.792Z,26.72
2023-05-22T09:31:55.794Z,26.69
2023-05-22T09:32:55.841Z,26.72
2023-05-22T09:33:55.731Z,26.73
2023-05-22T09:34:55.699Z,26.79
2023-05-22T09:35:55.694Z,26.74
2023-05-22T09:36:55.679Z,26.74
2023-05-22T09:37:55.672Z,26.83
2023-05-22T09:38:55.687Z,26.86
2023-05-22T09:39:55.649Z,26.96
2023-05-22T09:40:55.651Z,27.04
2023-05-22T09:41:55.637Z,26.99
2023-05-22T09:42:55.615Z,27.02
2023-05-22T09:43:55.674Z,27.05
2023-05-22T09:44:55.599Z,27.13
2023-05-22T09:45:55.592Z,27.19
2023-05-22T09:46:55.567Z,27.31
2023-05-22T09:47:55.612Z,27.29
2023-05-22T09:48:55.555Z,27.29
2023-05-22T09:49:55.533Z,27.35
2023-05-22T09:50:55.529Z,27.38
2023-05-22T09:51:55.512Z,27.41
2023-05-22T09:52:55.500Z,27.36
2023-05-22T09:53:55.510Z,27.35
2023-05-22T09:54:55.689Z,27.29
2023-05-22T09:55:55.487Z,27.28
2023-05-22T09:56:55.489Z,27.38
2023-05-22T09:57:55.450Z,27.46
2023-05-22T09:58:55.461Z,27.50
2023-05-22T09:59:55.523Z,27.58
2023-05-22T10:00:55.437Z,27.62
2023-05-22T10:01:55.441Z,27.67
2023-05-22T10:02:55.512Z,27.77
2023-05-22T10:03:55.413Z,27.67
2023-05-22T10:04:55.402Z,27.59
2023-05-22T10:05:55.428Z,27.61
2023-05-22T10:06:55.364Z,27.59
2023-05-22T10:07:55.343Z,27.66
2023-05-22T10:08:55.361Z,27.79
2023-05-22T10:09:55.401Z,27.89
2023-05-22T10:10:55.314Z,28.03
2023-05-22T10:11:55.301Z,28.14
2023-05-22T10:12:55.324Z,28.28
2023-05-22T10:13:55.311Z,28.38
2023-05-22T10:14:55.274Z,28.50
2023-05-22T10:15:55.298Z,28.60
2023-05-22T10:16:55.251Z,28.72
2023-05-22T10:17:55.332Z,28.85
2023-05-22T10:18:55.241Z,28.97
2023-05-22T10:19:55.220Z,28.85
2023-05-22T10:20:55.229Z,28.70
2023-05-22T10:21:55.187Z,28.69
2023-05-22T10:22:55.347Z,28.81
2023-05-22T10:23:55.203Z,28.91
2023-05-22T10:24:55.158Z,29.01
2023-05-22T10:25:55.157Z,29.11
2023-05-22T10:26:55.143Z,29.11
2023-05-22T10:27:55.137Z,29.13
2023-05-22T10:28:55.131Z,29.23
2023-05-22T10:29:55.110Z,29.33
2023-05-22T10:30:55.101Z,29.41
2023-05-22T10:31:55.110Z,29.40
2023-05-22T10:32:55.096Z,29.38
2023-05-22T10:33:55.152Z,29.29
2023-05-22T10:34:55.099Z,29.29
2023-05-22T10:35:55.052Z,29.28
2023-05-22T10:37:00.407Z,29.28
2023-05-22T10:37:55.153Z,29.28
2023-05-22T10:38:55.034Z,29.34
2023-05-22T10:39:54.998Z,29.19
2023-05-22T10:40:54.989Z,29.06
2023-05-22T10:41:54.976Z,28.87
2023-05-22T10:42:54.996Z,28.80
2023-05-22T10:43:54.997Z,28.77
2023-05-22T10:44:54.948Z,28.70
2023-05-22T10:45:54.952Z,28.69
2023-05-22T10:46:54.933Z,28.73
2023-05-22T10:47:54.987Z,28.77
2023-05-22T10:48:54.924Z,28.69
2023-05-22T10:49:54.905Z,28.56
2023-05-22T10:50:54.893Z,28.47
2023-05-22T10:51:54.877Z,28.50
2023-05-22T10:52:54.858Z,28.53
2023-05-22T10:53:54.886Z,28.53
2023-05-22T10:54:54.850Z,28.50
2023-05-22T10:55:54.843Z,28.58
2023-05-22T10:56:54.821Z,28.65
2023-05-22T10:57:54.811Z,28.77
2023-05-22T10:58:54.855Z,28.81
2023-05-22T10:59:54.781Z,28.84
2023-05-22T11:00:54.771Z,28.97
2023-05-22T11:01:54.770Z,28.96
2023-05-22T11:03:54.767Z,29.11
2023-05-22T11:04:54.756Z,29.28
2023-05-22T11:05:54.740Z,29.28
2023-05-22T11:06:54.707Z,29.19
2023-05-22T11:07:54.693Z,29.06
2023-05-22T11:08:54.710Z,29.03
2023-05-22T11:09:54.677Z,29.03
2023-05-22T11:10:54.707Z,29.10
2023-05-22T11:11:54.671Z,29.20
2023-05-22T11:12:54.645Z,29.23
2023-05-22T11:13:54.658Z,29.25
2023-05-22T11:14:54.630Z,29.29
2023-05-22T11:15:54.619Z,29.19
2023-05-22T11:16:54.663Z,29.10
2023-05-22T11:17:54.634Z,29.06
2023-05-22T11:18:55.370Z,29.00
2023-05-22T11:19:54.647Z,28.97
2023-05-22T11:20:54.566Z,28.90
2023-05-22T11:21:54.562Z,28.80
2023-05-22T11:22:54.549Z,28.72
2023-05-22T11:23:54.537Z,28.69
2023-05-22T11:24:54.523Z,28.69
2023-05-22T11:25:54.507Z,28.77
2023-05-22T11:26:54.494Z,28.84
2023-05-22T11:27:54.485Z,28.84
2023-05-22T11:28:54.492Z,28.95
2023-05-22T11:29:54.485Z,29.06
2023-05-22T11:30:54.516Z,29.07
2023-05-22T11:31:55.344Z,28.93
2023-05-22T11:32:54.470Z,28.84
2023-05-22T11:33:54.447Z,28.80
2023-05-22T11:34:54.481Z,28.70
2023-05-22T11:35:54.412Z,28.68
2023-05-22T11:36:54.390Z,28.70
2023-05-22T11:37:54.384Z,28.72
2023-05-22T11:38:54.386Z,28.72
2023-05-22T11:39:54.356Z,28.78
2023-05-22T11:40:54.405Z,28.97
2023-05-22T11:41:54.335Z,29.16
2023-05-22T11:42:54.424Z,29.23
2023-05-22T11:43:54.334Z,29.34
2023-05-22T11:44:54.340Z,29.43
2023-05-22T11:45:54.302Z,29.43
2023-05-22T11:46:54.326Z,29.52
2023-05-22T11:47:54.335Z,29.66
2023-05-22T11:48:54.317Z,29.87
2023-05-22T11:49:54.259Z,29.96
2023-05-22T11:50:54.253Z,30.11
2023-05-22T11:51:54.246Z,30.14
2023-05-22T11:52:54.240Z,30.21
2023-05-22T11:53:54.232Z,30.30
2023-05-22T11:54:54.185Z,30.40
2023-05-22T11:55:54.213Z,30.40
2023-05-22T11:56:54.192Z,30.57
2023-05-22T11:57:54.165Z,30.74
2023-05-22T11:58:54.172Z,30.76
2023-05-22T11:59:54.186Z,30.86
2023-05-22T12:00:54.179Z,30.61
2023-05-22T12:01:54.137Z,30.40
2023-05-22T12:02:54.208Z,30.37
2023-05-22T12:03:54.192Z,30.50
2023-05-22T12:04:54.096Z,30.65
2023-05-22T12:05:54.117Z,30.57
2023-05-22T12:06:54.104Z,30.59
2023-05-22T12:07:54.067Z,30.65
2023-05-22T12:08:54.068Z,30.65
2023-05-22T12:09:54.041Z,30.80
2023-05-22T12:10:54.026Z,30.94
2023-05-22T12:11:54.003Z,30.93
2023-05-22T12:12:54.017Z,30.98
2023-05-22T12:13:54.006Z,30.98
2023-05-22T12:14:53.980Z,30.86
2023-05-22T12:15:53.970Z,30.90
2023-05-22T12:16:54.071Z,30.86
2023-05-22T12:17:54.036Z,30.91
2023-05-22T12:18:53.988Z,31.01
2023-05-22T12:19:53.931Z,30.98
2023-05-22T12:20:53.945Z,31.04
2023-05-22T12:21:53.905Z,30.98
2023-05-22T12:22:53.890Z,31.05
2023-05-22T12:23:53.952Z,31.13
2023-05-22T12:24:53.935Z,31.21
2023-05-22T12:25:53.871Z,31.12
2023-05-22T12:26:53.867Z,30.94
2023-05-22T12:27:53.851Z,30.90
2023-05-22T12:28:53.868Z,30.74
2023-05-22T12:29:53.827Z,30.56
2023-05-22T12:30:53.819Z,30.46
2023-05-22T12:31:53.820Z,30.37
2023-05-22T12:32:53.863Z,30.40
2023-05-22T12:33:53.811Z,30.46
2023-05-22T12:34:53.769Z,30.33
2023-05-22T12:35:53.778Z,30.27
2023-05-22T12:36:53.758Z,30.29
2023-05-22T12:37:53.747Z,30.30
2023-05-22T12:38:53.741Z,30.29
2023-05-22T12:39:53.727Z,30.27
2023-05-22T12:40:53.762Z,30.12
2023-05-22T12:41:53.698Z,30.24
2023-05-22T12:42:53.691Z,30.31
2023-05-22T12:43:53.701Z,30.29
2023-05-22T12:44:53.669Z,30.30
2023-05-22T12:45:53.674Z,30.24
2023-05-22T12:46:53.733Z,30.31
2023-05-22T12:47:53.701Z,30.30
2023-05-22T12:48:53.639Z,30.30
2023-05-22T12:49:53.660Z,30.18
2023-05-22T12:50:53.603Z,30.19
2023-05-22T12:51:53.604Z,30.27
2023-05-22T12:52:53.595Z,30.40